Time;durP1;ratioP1;P1;durP2;ratioP2;P2;SDS_P1;SDS_P2;PMS_P1;PMS_P2;Temp;Humidity;BMP_temperature;BMP_pressure;BME280_temperature;BME280_humidity;BME280_pressure;Samples;Min_cycle;Max_cycle;Signal;HPM_P1;HPM_P2
2023/09/11 00:00:50;;;;;;;8.85;7.63;;;26.50;99.30;;;;;;4993568;28;20097;-71
2023/09/11 00:03:16;;;;;;;9.93;7.22;;;26.50;99.30;;;;;;4993401;28;20039;-68
2023/09/11 00:05:42;;;;;;;14.50;8.40;;;26.50;99.30;;;;;;4992399;28;20057;-76
2023/09/11 00:08:08;;;;;;;15.13;8.00;;;26.40;99.30;;;;;;4993288;28;20034;-78
2023/09/11 00:10:35;;;;;;;13.20;9.60;;;26.40;99.30;;;;;;4993421;28;20030;-76
2023/09/11 00:13:01;;;;;;;12.38;9.45;;;26.40;99.30;;;;;;4993565;28;20062;-77
2023/09/11 00:15:27;;;;;;;14.15;10.13;;;26.40;99.30;;;;;;4993373;28;20053;-69
2023/09/11 00:17:52;;;;;;;13.40;10.68;;;26.40;99.20;;;;;;4993661;28;20062;-69
2023/09/11 00:20:18;;;;;;;14.63;10.60;;;26.40;99.20;;;;;;4993248;28;20041;-67
2023/09/11 00:22:43;;;;;;;16.45;9.55;;;26.30;99.20;;;;;;4993144;28;20053;-78
2023/09/11 00:25:09;;;;;;;16.13;10.40;;;26.30;99.20;;;;;;4991752;28;20023;-74
2023/09/11 00:27:36;;;;;;;17.10;10.52;;;26.30;99.20;;;;;;4993685;28;20033;-77
2023/09/11 00:30:02;;;;;;;16.55;10.70;;;26.30;99.20;;;;;;4993275;28;20460;-69
2023/09/11 00:32:28;;;;;;;15.73;10.38;;;26.20;99.10;;;;;;4993390;28;20027;-77
2023/09/11 00:34:53;;;;;;;15.77;11.02;;;26.30;99.20;;;;;;4993032;28;20018;-77
2023/09/11 00:37:19;;;;;;;15.13;11.07;;;26.30;99.10;;;;;;4992969;28;20361;-77
2023/09/11 00:39:45;;;;;;;19.17;11.73;;;26.30;99.10;;;;;;4993386;28;20026;-77
2023/09/11 00:42:10;;;;;;;20.75;12.73;;;26.20;98.90;;;;;;4993237;28;20041;-77
2023/09/11 00:44:36;;;;;;;20.48;13.43;;;26.20;98.90;;;;;;4993290;28;20424;-77
2023/09/11 00:47:02;;;;;;;24.60;13.48;;;26.20;98.80;;;;;;4995172;28;20472;-74
2023/09/11 00:49:27;;;;;;;21.33;14.80;;;26.10;98.70;;;;;;4995485;28;20114;-76
2023/09/11 00:51:55;;;;;;;22.70;14.10;;;26.20;98.70;;;;;;4996403;28;20062;-76
2023/09/11 00:54:22;;;;;;;26.90;16.05;;;26.20;98.80;;;;;;4996596;28;20109;-76
2023/09/11 00:56:48;;;;;;;28.83;16.60;;;26.20;99.00;;;;;;4996729;28;20050;-73
2023/09/11 00:59:14;;;;;;;25.63;17.52;;;26.10;98.60;;;;;;4996610;28;20023;-80
2023/09/11 01:01:44;;;;;;;28.35;17.65;;;26.10;98.70;;;;;;4995347;28;20026;-78
2023/09/11 01:04:10;;;;;;;28.23;18.83;;;26.10;98.60;;;;;;4996343;28;20108;-77
2023/09/11 01:06:36;;;;;;;27.95;18.70;;;26.10;98.60;;;;;;4996293;28;20506;-78
2023/09/11 01:09:03;;;;;;;27.63;19.05;;;26.10;98.70;;;;;;4995238;28;20446;-73
2023/09/11 01:11:28;;;;;;;25.17;16.52;;;26.10;98.60;;;;;;4995076;28;20069;-74
2023/09/11 01:13:55;;;;;;;26.60;18.23;;;26.10;98.80;;;;;;4996566;28;20030;-76
2023/09/11 01:16:55;;;;;;;23.38;16.02;;;26.10;98.70;;;;;;4996168;28;20019;-69
2023/09/11 01:20:08;;;;;;;24.45;16.65;;;26.00;98.70;;;;;;4993543;28;20137;-71
2023/09/11 01:22:55;;;;;;;30.23;16.75;;;26.00;98.60;;;;;;4996019;28;20129;-76
2023/09/11 01:25:50;;;;;;;25.67;16.20;;;26.00;98.60;;;;;;4995993;28;20035;-69
2023/09/11 01:28:49;;;;;;;21.60;15.02;;;26.00;98.60;;;;;;4996337;28;20128;-78
2023/09/11 01:31:16;;;;;;;18.98;13.07;;;26.00;98.50;;;;;;4994611;28;20038;-72
2023/09/11 01:33:41;;;;;;;22.10;11.77;;;25.90;98.40;;;;;;4995580;28;20084;-72
2023/09/11 01:36:07;;;;;;;21.60;11.88;;;25.90;98.30;;;;;;4995964;28;20468;-78
2023/09/11 01:38:33;;;;;;;16.70;10.95;;;25.90;98.20;;;;;;4995952;28;20026;-77
2023/09/11 01:41:01;;;;;;;13.95;10.63;;;25.90;98.30;;;;;;4995946;28;20018;-69
2023/09/11 01:43:31;;;;;;;22.02;11.70;;;25.90;98.20;;;;;;4995863;28;20038;-79
2023/09/11 01:45:59;;;;;;;19.15;12.50;;;25.80;98.20;;;;;;4995668;28;20543;-69
2023/09/11 01:48:25;;;;;;;19.30;12.15;;;25.80;98.20;;;;;;4995497;28;20494;-79
2023/09/11 01:50:51;;;;;;;17.25;11.23;;;25.80;98.30;;;;;;4995417;28;20109;-79
2023/09/11 01:53:17;;;;;;;17.45;10.02;;;25.80;98.30;;;;;;4994563;28;20531;-77
2023/09/11 01:55:43;;;;;;;15.38;10.30;;;25.80;98.30;;;;;;4995332;28;20093;-75
2023/09/11 01:58:08;;;;;;;15.60;10.23;;;25.80;98.20;;;;;;4994798;28;20376;-69
2023/09/11 02:00:34;;;;;;;12.70;9.82;;;25.80;98.30;;;;;;4994046;28;20022;-78
2023/09/11 02:02:59;;;;;;;13.88;9.55;;;25.80;98.30;;;;;;4994998;28;20037;-69
2023/09/11 02:05:25;;;;;;;14.38;9.23;;;25.70;98.20;;;;;;4995599;28;20081;-78
2023/09/11 02:07:51;;;;;;;14.13;9.23;;;25.70;98.20;;;;;;4995201;28;20570;-73
2023/09/11 02:10:17;;;;;;;13.30;8.82;;;25.70;98.20;;;;;;4995510;28;20413;-76
2023/09/11 02:12:43;;;;;;;14.70;9.23;;;25.70;98.30;;;;;;4995078;28;20038;-69
2023/09/11 02:15:09;;;;;;;12.63;9.15;;;25.70;98.30;;;;;;4995313;28;20023;-69
2023/09/11 02:17:34;;;;;;;13.25;9.05;;;25.60;98.30;;;;;;4994794;28;20031;-78
2023/09/11 02:20:00;;;;;;;12.10;8.90;;;25.60;98.40;;;;;;4994957;28;20042;-70
2023/09/11 02:22:25;;;;;;;11.15;8.98;;;25.60;98.40;;;;;;4994882;28;20077;-71
2023/09/11 02:24:51;;;;;;;12.55;7.90;;;25.60;98.40;;;;;;4994855;28;20022;-73
2023/09/11 02:27:16;;;;;;;9.82;8.15;;;25.60;98.40;;;;;;4994958;28;20027;-78
2023/09/11 02:29:42;;;;;;;11.43;7.75;;;25.60;98.30;;;;;;4994823;28;20468;-70
2023/09/11 02:32:08;;;;;;;12.57;8.20;;;25.50;98.30;;;;;;4994441;28;20026;-78
2023/09/11 02:34:33;;;;;;;18.70;8.73;;;25.50;98.40;;;;;;4994774;28;20477;-69
2023/09/11 02:36:59;;;;;;;9.07;7.88;;;25.50;98.40;;;;;;4994584;28;20030;-69
2023/09/11 02:39:24;;;;;;;11.48;8.52;;;25.50;98.40;;;;;;4994799;28;20023;-77
2023/09/11 02:41:50;;;;;;;10.65;8.07;;;25.50;98.40;;;;;;4994442;28;20026;-78
2023/09/11 02:44:15;;;;;;;13.90;8.15;;;25.50;98.40;;;;;;4994786;28;20031;-71
2023/09/11 02:46:43;;;;;;;13.15;8.43;;;25.50;98.50;;;;;;4994176;28;20022;-74
2023/09/11 02:49:08;;;;;;;10.35;8.30;;;25.50;98.60;;;;;;4994504;28;20060;-79
2023/09/11 02:51:34;;;;;;;13.25;8.23;;;25.50;98.90;;;;;;4994773;28;20460;-78
2023/09/11 02:54:00;;;;;;;9.32;7.38;;;25.50;98.80;;;;;;4994474;28;20038;-71
2023/09/11 02:56:25;;;;;;;11.70;8.65;;;25.50;98.80;;;;;;4994425;28;20400;-68
2023/09/11 02:58:51;;;;;;;13.40;8.20;;;25.40;98.60;;;;;;4994271;28;20026;-77
2023/09/11 03:01:17;;;;;;;13.93;8.55;;;25.40;98.90;;;;;;4994036;28;20019;-72
2023/09/11 03:03:43;;;;;;;13.50;7.75;;;25.40;98.70;;;;;;4994224;28;20053;-74
2023/09/11 03:06:08;;;;;;;12.52;8.25;;;25.40;98.80;;;;;;4994154;28;20026;-75
2023/09/11 03:08:34;;;;;;;17.20;8.70;;;25.40;98.70;;;;;;4986221;28;20116;-78
2023/09/11 03:11:08;;;;;;;11.63;7.95;;;25.30;98.40;;;;;;4992989;28;20034;-69
2023/09/11 03:13:34;;;;;;;16.35;7.40;;;25.30;98.40;;;;;;4991679;28;20015;-69
2023/09/11 03:16:10;;;;;;;10.10;7.25;;;25.30;98.40;;;;;;4993519;28;20385;-72
2023/09/11 03:18:37;;;;;;;11.15;6.95;;;25.30;98.30;;;;;;4994122;28;20388;-72
2023/09/11 03:21:05;;;;;;;13.32;7.13;;;25.30;98.30;;;;;;4993732;28;20041;-70
2023/09/11 03:23:31;;;;;;;11.75;7.75;;;25.20;98.20;;;;;;4993952;28;20117;-76
2023/09/11 03:25:57;;;;;;;10.85;7.55;;;25.20;98.20;;;;;;4993903;28;20050;-69
2023/09/11 03:28:26;;;;;;;9.27;7.63;;;25.20;98.20;;;;;;4993850;28;20033;-74
2023/09/11 03:30:52;;;;;;;10.00;7.63;;;25.20;98.20;;;;;;4993482;28;20023;-69
2023/09/11 03:33:18;;;;;;;9.55;7.50;;;25.20;98.20;;;;;;4993883;28;20018;-72
2023/09/11 03:35:46;;;;;;;10.55;7.97;;;25.10;98.20;;;;;;4994018;28;20366;-76
2023/09/11 03:38:12;;;;;;;13.98;7.43;;;25.10;98.20;;;;;;4993743;28;20030;-68
2023/09/11 03:40:38;;;;;;;14.02;8.35;;;25.10;98.30;;;;;;4993817;28;20026;-77
2023/09/11 03:43:04;;;;;;;15.55;8.27;;;25.10;98.30;;;;;;4993520;28;20030;-69
2023/09/11 03:45:29;;;;;;;11.65;7.78;;;25.00;98.30;;;;;;4993570;28;20101;-77
2023/09/11 03:47:55;;;;;;;11.07;7.93;;;25.00;98.30;;;;;;4993869;28;20085;-76
2023/09/11 03:50:20;;;;;;;11.32;7.28;;;25.00;98.30;;;;;;4993668;28;20030;-78
2023/09/11 03:52:46;;;;;;;17.10;8.45;;;25.00;98.30;;;;;;4993703;28;20026;-78
2023/09/11 03:55:11;;;;;;;13.55;7.90;;;25.00;98.30;;;;;;4993367;28;20027;-77
2023/09/11 03:57:38;;;;;;;13.25;7.97;;;25.00;98.30;;;;;;4993776;28;20026;-69
2023/09/11 04:00:07;;;;;;;11.15;8.68;;;24.90;98.40;;;;;;4993351;28;20022;-71
2023/09/11 04:02:33;;;;;;;11.75;7.65;;;24.90;98.40;;;;;;4993541;28;20460;-76
2023/09/11 04:04:59;;;;;;;12.73;8.18;;;24.90;98.40;;;;;;4993452;28;20090;-79
2023/09/11 04:07:24;;;;;;;10.30;8.13;;;24.90;98.40;;;;;;5008703;28;20022;-70
2023/09/11 04:09:50;;;;;;;13.43;8.48;;;24.90;98.40;;;;;;4993420;28;20468;-68
2023/09/11 04:12:17;;;;;;;13.35;8.60;;;24.80;98.40;;;;;;4993562;28;20030;-69
2023/09/11 04:14:43;;;;;;;12.60;9.32;;;24.80;98.50;;;;;;4990240;28;20018;-68
2023/09/11 04:17:10;;;;;;;11.73;8.43;;;24.80;98.50;;;;;;4993388;28;20029;-68
2023/09/11 04:19:37;;;;;;;12.02;9.60;;;24.80;98.60;;;;;;4993176;28;20483;-71
2023/09/11 04:22:04;;;;;;;11.85;9.90;;;24.80;98.60;;;;;;4995179;28;20026;-74
2023/09/11 04:24:30;;;;;;;11.40;8.65;;;24.80;98.60;;;;;;4996915;28;20076;-68
2023/09/11 04:26:56;;;;;;;12.48;8.35;;;24.80;98.60;;;;;;4996348;28;20022;-76
2023/09/11 04:29:22;;;;;;;17.05;10.00;;;24.70;98.50;;;;;;5002204;28;20392;-74
2023/09/11 04:31:48;;;;;;;13.00;8.82;;;24.70;98.60;;;;;;4993087;28;20026;-74
2023/09/11 04:34:14;;;;;;;14.73;10.05;;;24.70;98.60;;;;;;4996932;28;20033;-69
2023/09/11 04:36:40;;;;;;;12.90;9.98;;;24.70;98.60;;;;;;4995765;28;20026;-73
2023/09/11 04:39:06;;;;;;;13.80;9.85;;;24.60;98.60;;;;;;4996350;28;20026;-78
2023/09/11 04:41:31;;;;;;;14.80;10.02;;;24.70;98.60;;;;;;4996838;28;20066;-79
2023/09/11 04:43:57;;;;;;;15.70;10.25;;;24.60;98.70;;;;;;4996041;28;20033;-76
2023/09/11 04:46:22;;;;;;;18.83;9.70;;;24.60;98.70;;;;;;4996414;28;20023;-77
2023/09/11 04:48:48;;;;;;;16.95;9.80;;;24.60;99.40;;;;;;4994509;28;20030;-78
2023/09/11 04:51:13;;;;;;;11.30;9.10;;;24.60;99.00;;;;;;4995783;28;20026;-73
2023/09/11 04:53:39;;;;;;;12.45;7.65;;;24.60;99.10;;;;;;4995615;28;20049;-76
2023/09/11 04:56:05;;;;;;;12.13;7.78;;;24.70;99.40;;;;;;4996120;28;20102;-78
2023/09/11 04:58:30;;;;;;;10.77;7.00;;;24.80;99.70;;;;;;4996645;28;20027;-77
2023/09/11 05:00:56;;;;;;;9.25;7.22;;;24.70;99.90;;;;;;4995472;28;20054;-72
2023/09/11 05:03:21;;;;;;;10.50;6.80;;;24.80;99.90;;;;;;4989451;28;20039;-78
2023/09/11 05:05:48;;;;;;;11.57;7.22;;;24.80;99.90;;;;;;4976112;28;20074;-78
2023/09/11 05:08:13;;;;;;;15.32;8.05;;;24.80;99.90;;;;;;4976005;28;20023;-76
2023/09/11 05:10:43;;;;;;;12.60;9.07;;;24.80;99.90;;;;;;4976707;28;20033;-78
2023/09/11 05:13:09;;;;;;;13.45;9.52;;;24.70;99.80;;;;;;4976942;28;20023;-72
2023/09/11 05:15:35;;;;;;;10.80;9.52;;;24.70;99.80;;;;;;4976736;28;20034;-73
2023/09/11 05:18:01;;;;;;;14.23;10.25;;;24.70;99.80;;;;;;4976922;28;20034;-78
2023/09/11 05:20:27;;;;;;;12.60;10.05;;;24.70;99.70;;;;;;4976484;28;20027;-74
2023/09/11 05:22:52;;;;;;;18.75;11.07;;;24.70;99.60;;;;;;4976645;28;20391;-76
2023/09/11 05:25:20;;;;;;;11.65;9.93;;;24.60;99.50;;;;;;4976156;28;20034;-75
2023/09/11 05:27:45;;;;;;;12.15;10.38;;;24.60;99.60;;;;;;4976607;28;20530;-76
2023/09/11 05:30:12;;;;;;;18.98;11.60;;;24.60;99.50;;;;;;4989240;28;20097;-72
2023/09/11 05:32:38;;;;;;;12.55;8.90;;;24.60;99.50;;;;;;4992443;28;20149;-76
2023/09/11 05:35:05;;;;;;;15.25;10.73;;;24.60;99.70;;;;;;4993636;28;20109;-75
2023/09/11 05:37:30;;;;;;;16.35;11.77;;;24.60;99.60;;;;;;4992137;28;20030;-71
2023/09/11 05:39:56;;;;;;;17.75;12.68;;;24.60;99.60;;;;;;4994179;28;20034;-78
2023/09/11 05:42:22;;;;;;;18.52;12.27;;;24.50;99.50;;;;;;4995485;28;20042;-73
2023/09/11 05:44:48;;;;;;;17.35;12.50;;;24.50;99.50;;;;;;4995595;28;20021;-71
2023/09/11 05:47:14;;;;;;;14.38;12.93;;;24.50;99.60;;;;;;4995569;28;20399;-75
2023/09/11 05:49:40;;;;;;;17.15;14.02;;;24.40;99.60;;;;;;4995715;28;20020;-74
2023/09/11 05:52:06;;;;;;;14.73;13.30;;;24.40;99.60;;;;;;4994477;28;20121;-76
2023/09/11 05:54:36;;;;;;;16.35;13.65;;;24.40;99.70;;;;;;4993154;28;20026;-72
2023/09/11 05:57:02;;;;;;;17.88;13.82;;;24.40;99.70;;;;;;4995348;28;20022;-76
2023/09/11 05:59:28;;;;;;;16.45;14.48;;;24.40;99.80;;;;;;4995531;28;20027;-74
2023/09/11 06:01:54;;;;;;;18.38;13.80;;;24.40;99.80;;;;;;4994743;28;20037;-76
2023/09/11 06:04:20;;;;;;;24.27;15.52;;;24.40;99.90;;;;;;4994184;28;20061;-75
2023/09/11 06:06:46;;;;;;;15.88;14.10;;;24.30;99.90;;;;;;4993190;28;20065;-70
2023/09/11 06:09:12;;;;;;;17.88;14.70;;;24.40;99.90;;;;;;4994754;28;20023;-73
2023/09/11 06:11:37;;;;;;;22.13;14.82;;;24.40;99.90;;;;;;5003953;28;20028;-74
2023/09/11 06:14:05;;;;;;;17.85;14.13;;;24.30;99.90;;;;;;5012949;28;20026;-78
2023/09/11 06:16:31;;;;;;;21.83;14.68;;;24.40;99.90;;;;;;4993853;28;20039;-71
2023/09/11 06:19:00;;;;;;;17.08;15.20;;;24.30;99.90;;;;;;4989914;28;20072;-77
2023/09/11 06:21:26;;;;;;;19.60;15.15;;;24.30;99.90;;;;;;4994735;28;20030;-78
2023/09/11 06:23:52;;;;;;;17.48;15.75;;;24.40;99.90;;;;;;4994747;28;20400;-77
2023/09/11 06:26:18;;;;;;;17.52;14.65;;;24.40;99.90;;;;;;4994878;28;20018;-76
2023/09/11 06:28:44;;;;;;;17.02;14.30;;;24.40;99.90;;;;;;4993759;28;20030;-77
2023/09/11 06:31:10;;;;;;;19.25;14.93;;;24.30;99.90;;;;;;4994654;28;20021;-75
2023/09/11 06:33:36;;;;;;;16.73;13.68;;;24.40;99.90;;;;;;4994648;28;20105;-76
2023/09/11 06:36:03;;;;;;;18.92;15.43;;;24.40;99.90;;;;;;4994795;28;20071;-77
2023/09/11 06:38:29;;;;;;;16.45;14.73;;;24.40;99.90;;;;;;4993540;28;20026;-78
2023/09/11 06:40:54;;;;;;;18.42;14.80;;;24.40;99.90;;;;;;4994768;28;20011;-78
2023/09/11 06:43:20;;;;;;;17.48;15.20;;;24.40;99.90;;;;;;4994535;28;20479;-76
2023/09/11 06:45:46;;;;;;;16.08;14.40;;;24.40;99.90;;;;;;4994314;28;20058;-77
2023/09/11 06:48:12;;;;;;;19.45;14.98;;;24.40;99.90;;;;;;4994672;28;20076;-77
2023/09/11 06:50:38;;;;;;;17.38;15.57;;;24.40;99.90;;;;;;4994584;28;20030;-76
2023/09/11 06:53:07;;;;;;;18.70;15.40;;;24.40;99.90;;;;;;4994154;28;20026;-78
2023/09/11 06:55:33;;;;;;;20.05;15.00;;;24.40;99.90;;;;;;4994715;28;20026;-76
2023/09/11 06:58:00;;;;;;;20.05;15.35;;;24.50;99.90;;;;;;4994339;28;20037;-74
2023/09/11 07:00:26;;;;;;;17.13;13.85;;;24.50;99.90;;;;;;4994582;28;20069;-79
2023/09/11 07:02:51;;;;;;;14.40;12.10;;;24.50;99.90;;;;;;4994068;28;20050;-74
2023/09/11 07:05:18;;;;;;;16.88;14.63;;;24.50;99.90;;;;;;4994410;28;20026;-78
2023/09/11 07:07:44;;;;;;;15.88;11.88;;;24.50;99.90;;;;;;4993996;28;20022;-77
2023/09/11 07:10:11;;;;;;;16.98;15.20;;;24.50;99.90;;;;;;4994405;28;20466;-70
2023/09/11 07:12:37;;;;;;;15.93;13.43;;;24.60;99.90;;;;;;4994304;28;20023;-78
2023/09/11 07:15:05;;;;;;;15.25;13.02;;;24.60;99.90;;;;;;4994010;28;20035;-71
2023/09/11 07:17:30;;;;;;;14.65;11.18;;;24.60;99.90;;;;;;4993618;28;20089;-74
2023/09/11 07:19:56;;;;;;;14.80;12.23;;;24.60;99.90;;;;;;4993695;28;20062;-76
2023/09/11 07:22:21;;;;;;;15.20;11.63;;;24.60;99.90;;;;;;4993856;28;20042;-77
2023/09/11 07:24:47;;;;;;;15.70;12.48;;;24.60;99.90;;;;;;4994122;28;20018;-71
2023/09/11 07:27:13;;;;;;;16.20;12.90;;;24.70;99.90;;;;;;4999615;28;20042;-71
2023/09/11 07:29:40;;;;;;;15.77;13.65;;;24.60;99.90;;;;;;4993631;28;20027;-72
2023/09/11 07:32:06;;;;;;;14.00;11.95;;;24.70;99.90;;;;;;5011733;28;20467;-79
2023/09/11 07:34:32;;;;;;;17.58;11.82;;;24.70;99.90;;;;;;5013244;28;20105;-71
2023/09/11 07:36:58;;;;;;;12.20;9.70;;;24.80;99.90;;;;;;4993764;28;20544;-74
2023/09/11 07:39:24;;;;;;;14.00;11.02;;;24.80;99.90;;;;;;5003436;28;20029;-75
2023/09/11 07:41:50;;;;;;;14.65;11.07;;;24.80;99.90;;;;;;5003641;28;20026;-77
2023/09/11 07:44:15;;;;;;;13.82;11.70;;;24.80;99.90;;;;;;5002981;28;20089;-72
2023/09/11 07:46:41;;;;;;;19.02;14.32;;;24.80;99.90;;;;;;5013200;28;20030;-71
2023/09/11 07:49:06;;;;;;;17.70;12.90;;;24.90;99.90;;;;;;5012628;28;20037;-78
2023/09/11 07:51:32;;;;;;;14.40;11.25;;;24.90;99.90;;;;;;5007273;28;20126;-73
2023/09/11 07:53:59;;;;;;;11.93;10.63;;;24.90;99.90;;;;;;4976768;28;20472;-72
2023/09/11 07:56:25;;;;;;;18.90;12.23;;;24.90;99.90;;;;;;4977193;28;20095;-75
2023/09/11 07:58:51;;;;;;;15.27;11.75;;;25.00;99.90;;;;;;4998763;28;20040;-78
2023/09/11 08:01:21;;;;;;;14.93;10.27;;;25.00;99.90;;;;;;4998566;28;20038;-71
2023/09/11 08:03:49;;;;;;;13.55;10.60;;;25.00;99.90;;;;;;4985210;28;20053;-70
2023/09/11 08:06:15;;;;;;;13.40;9.88;;;25.10;99.90;;;;;;4988117;28;20061;-77
2023/09/11 08:08:41;;;;;;;11.50;9.50;;;25.10;99.90;;;;;;4996859;28;20057;-72
2023/09/11 08:11:15;;;;;;;10.77;9.15;;;25.10;99.90;;;;;;4997918;28;20030;-70
2023/09/11 08:13:41;;;;;;;15.35;10.13;;;25.10;99.90;;;;;;4997275;28;20376;-75
2023/09/11 08:16:06;;;;;;;15.35;10.63;;;25.10;99.90;;;;;;4996552;28;20037;-70
2023/09/11 08:18:32;;;;;;;10.32;9.15;;;25.10;99.90;;;;;;4980121;28;20030;-71
2023/09/11 08:20:58;;;;;;;14.75;10.15;;;25.20;99.90;;;;;;4995439;28;20104;-77
2023/09/11 08:23:25;;;;;;;11.15;8.88;;;25.20;99.90;;;;;;4977713;28;20041;-73
2023/09/11 08:26:04;;;;;;;10.45;8.52;;;25.20;99.90;;;;;;4995165;28;20135;-74
2023/09/11 08:28:30;;;;;;;11.55;8.95;;;25.30;99.90;;;;;;4995506;28;20101;-74
2023/09/11 08:30:56;;;;;;;14.65;8.95;;;25.30;99.90;;;;;;4996961;28;20153;-75
2023/09/11 08:33:25;;;;;;;14.25;9.15;;;25.30;99.90;;;;;;4997155;28;20052;-74
2023/09/11 08:35:51;;;;;;;12.90;8.82;;;25.30;99.90;;;;;;4996935;28;20399;-73
2023/09/11 08:38:17;;;;;;;12.95;8.05;;;25.30;99.90;;;;;;4997276;28;20494;-77
2023/09/11 08:40:44;;;;;;;14.93;9.02;;;25.30;99.90;;;;;;4997067;28;20045;-72
2023/09/11 08:43:10;;;;;;;14.75;8.73;;;25.40;99.90;;;;;;4996949;28;20038;-72
2023/09/11 08:45:37;;;;;;;11.45;8.27;;;25.30;99.80;;;;;;4993427;28;20019;-73
2023/09/11 08:48:13;;;;;;;15.85;8.60;;;25.40;99.80;;;;;;4977242;28;20031;-74
2023/09/11 08:51:10;;;;;;;12.93;8.15;;;25.40;99.90;;;;;;4974205;28;20105;-72
2023/09/11 08:53:38;;;;;;;10.60;8.00;;;25.40;99.80;;;;;;4964505;28;20396;-76
2023/09/11 08:56:05;;;;;;;13.77;8.27;;;25.40;99.60;;;;;;4977123;28;20030;-76
2023/09/11 08:58:32;;;;;;;12.85;7.93;;;25.40;99.60;;;;;;4970162;28;20416;-76
2023/09/11 09:00:59;;;;;;;10.25;7.05;;;25.50;99.60;;;;;;4978980;28;20395;-77
2023/09/11 09:03:26;;;;;;;10.02;7.28;;;25.50;99.60;;;;;;4975168;28;20030;-77
2023/09/11 09:05:53;;;;;;;12.38;7.65;;;25.50;99.60;;;;;;4966899;28;20046;-74
2023/09/11 09:08:20;;;;;;;11.68;7.25;;;25.50;99.60;;;;;;4979165;28;20031;-71
2023/09/11 09:10:48;;;;;;;10.88;7.22;;;25.50;99.60;;;;;;4976782;28;20053;-74
2023/09/11 09:13:14;;;;;;;10.02;7.63;;;25.50;99.50;;;;;;4987584;28;20038;-71
2023/09/11 09:15:42;;;;;;;9.77;6.28;;;25.60;99.40;;;;;;4996272;28;20042;-74
2023/09/11 09:18:08;;;;;;;9.80;7.35;;;25.50;99.40;;;;;;4987088;28;20031;-77
2023/09/11 09:20:34;;;;;;;9.40;6.75;;;25.50;99.40;;;;;;4991563;28;20380;-71
2023/09/11 09:23:10;;;;;;;8.90;6.50;;;25.50;99.10;;;;;;4997558;28;20038;-73
2023/09/11 09:25:37;;;;;;;9.60;6.13;;;25.60;99.20;;;;;;4995703;28;20125;-77
2023/09/11 09:28:03;;;;;;;8.55;6.60;;;25.60;99.30;;;;;;4995388;28;20065;-73
2023/09/11 09:30:31;;;;;;;11.45;6.45;;;25.60;99.20;;;;;;4995621;28;20062;-76
2023/09/11 09:32:57;;;;;;;9.93;6.32;;;25.60;99.20;;;;;;4995171;28;20033;-74
2023/09/11 09:35:30;;;;;;;8.98;5.53;;;25.70;99.10;;;;;;4997065;28;20412;-78
2023/09/11 09:37:57;;;;;;;15.65;6.20;;;25.70;99.10;;;;;;4996011;28;20041;-77
2023/09/11 09:40:36;;;;;;;14.48;6.05;;;25.70;99.10;;;;;;4994124;28;20034;-72
2023/09/11 09:43:04;;;;;;;7.68;5.95;;;25.70;99.10;;;;;;4984598;28;20081;-75
2023/09/11 09:45:37;;;;;;;9.88;6.35;;;25.70;99.00;;;;;;4991009;28;20034;-76
2023/09/11 09:48:16;;;;;;;7.57;5.95;;;25.70;99.00;;;;;;4976040;28;20069;-71
2023/09/11 09:50:51;;;;;;;7.75;5.43;;;25.70;98.90;;;;;;4976132;28;20023;-78
2023/09/11 09:53:34;;;;;;;12.25;6.10;;;25.70;98.90;;;;;;4976225;28;20077;-76
2023/09/11 09:56:05;;;;;;;8.75;5.85;;;25.70;99.00;;;;;;4975997;28;20085;-76
2023/09/11 09:58:40;;;;;;;9.55;5.63;;;25.80;98.60;;;;;;4976150;28;20436;-76
2023/09/11 10:01:08;;;;;;;12.90;5.85;;;25.70;98.40;;;;;;4975673;28;20451;-74
2023/09/11 10:03:45;;;;;;;7.90;5.78;;;25.70;98.60;;;;;;4975792;28;20039;-71
2023/09/11 10:06:27;;;;;;;8.25;5.25;;;25.80;98.60;;;;;;4975837;28;20385;-77
2023/09/11 10:09:13;;;;;;;9.50;5.30;;;25.80;98.50;;;;;;4976147;28;20023;-78
2023/09/11 10:11:40;;;;;;;7.10;5.57;;;25.80;98.40;;;;;;4981060;28;20022;-78
2023/09/11 10:14:10;;;;;;;9.68;5.57;;;25.80;98.50;;;;;;4993335;28;20030;-77
2023/09/11 10:16:36;;;;;;;7.75;5.68;;;25.80;98.50;;;;;;4994562;28;20080;-78
2023/09/11 10:19:03;;;;;;;11.65;5.45;;;25.80;98.10;;;;;;4993890;28;20022;-72
2023/09/11 10:21:30;;;;;;;6.28;4.63;;;25.80;97.70;;;;;;4975305;28;20066;-76
2023/09/11 10:23:56;;;;;;;7.88;5.18;;;25.80;97.60;;;;;;4957990;28;20578;-73
2023/09/11 10:26:40;;;;;;;8.80;5.07;;;25.90;97.40;;;;;;4958159;28;20117;-72
2023/09/11 10:29:09;;;;;;;8.77;5.05;;;25.90;97.20;;;;;;4975578;28;20058;-73
2023/09/11 10:31:49;;;;;;;7.03;4.95;;;25.90;97.20;;;;;;4974844;28;20030;-72
2023/09/11 10:34:15;;;;;;;7.47;5.05;;;25.90;97.30;;;;;;4964640;28;20082;-72
2023/09/11 10:36:49;;;;;;;13.60;6.10;;;25.90;97.50;;;;;;4974929;28;20078;-72
2023/09/11 10:39:18;;;;;;;12.75;5.22;;;26.00;98.00;;;;;;4975231;28;20023;-79
2023/09/11 10:41:44;;;;;;;10.82;4.90;;;26.00;98.00;;;;;;4957550;28;20031;-76
2023/09/11 10:44:11;;;;;;;11.15;5.88;;;26.00;97.70;;;;;;4975903;28;20385;-75
2023/09/11 10:46:39;;;;;;;10.40;5.20;;;26.00;97.30;;;;;;4969991;28;20538;-74
2023/09/11 10:49:17;;;;;;;8.15;5.18;;;26.00;97.30;;;;;;4973641;28;20081;-73
2023/09/11 10:51:44;;;;;;;8.40;5.28;;;26.00;97.40;;;;;;4973789;28;20361;-74
2023/09/11 10:54:20;;;;;;;11.35;5.13;;;26.00;97.30;;;;;;4973863;28;20038;-74
2023/09/11 10:56:52;;;;;;;7.38;4.45;;;26.00;97.30;;;;;;4973783;28;20038;-72
2023/09/11 10:59:24;;;;;;;8.15;4.85;;;26.00;97.50;;;;;;4973584;28;20050;-74
2023/09/11 11:01:50;;;;;;;8.07;5.28;;;26.00;97.90;;;;;;4956805;28;20031;-71
2023/09/11 11:04:17;;;;;;;6.63;4.47;;;26.00;97.80;;;;;;4973616;28;20035;-79
2023/09/11 11:06:45;;;;;;;7.38;4.38;;;26.00;97.90;;;;;;4974062;28;20027;-73
2023/09/11 11:09:33;;;;;;;10.40;6.13;;;26.00;97.80;;;;;;4974218;28;20480;-72
2023/09/11 11:12:05;;;;;;;8.57;5.63;;;26.10;97.50;;;;;;4973867;28;20035;-73
2023/09/11 11:14:31;;;;;;;9.20;5.63;;;26.10;97.60;;;;;;4973439;28;20030;-72
2023/09/11 11:17:06;;;;;;;6.53;4.60;;;26.10;97.50;;;;;;4973983;28;20099;-72
2023/09/11 11:19:39;;;;;;;9.00;5.32;;;26.10;97.80;;;;;;4978091;28;20057;-76
2023/09/11 11:22:07;;;;;;;14.07;6.00;;;26.10;97.80;;;;;;4993246;28;20495;-74
2023/09/11 11:24:54;;;;;;;10.13;5.47;;;26.20;97.60;;;;;;4992702;28;20040;-74
2023/09/11 11:27:20;;;;;;;7.53;4.53;;;26.10;97.60;;;;;;4993279;28;20014;-72
2023/09/11 11:29:47;;;;;;;6.70;4.65;;;26.10;97.70;;;;;;4993579;28;20034;-72
2023/09/11 11:32:14;;;;;;;7.70;4.97;;;26.20;97.60;;;;;;4993640;28;20033;-74
2023/09/11 11:34:43;;;;;;;15.35;6.25;;;26.20;97.70;;;;;;4991765;28;20105;-78
2023/09/11 11:37:10;;;;;;;16.70;5.53;;;26.20;97.70;;;;;;4993879;28;20026;-73
2023/09/11 11:39:37;;;;;;;12.07;4.57;;;26.20;97.90;;;;;;4996994;28;20023;-73
2023/09/11 11:42:03;;;;;;;7.05;4.65;;;26.20;97.60;;;;;;4991550;28;20030;-75
2023/09/11 11:44:33;;;;;;;7.60;5.40;;;26.20;97.80;;;;;;4993326;28;20045;-78
2023/09/11 11:46:59;;;;;;;6.90;4.70;;;26.30;97.40;;;;;;4991516;28;20423;-76
2023/09/11 11:49:25;;;;;;;5.38;3.90;;;26.20;97.20;;;;;;4992734;28;20022;-76
2023/09/11 11:51:51;;;;;;;6.35;3.95;;;26.30;97.40;;;;;;4993328;28;20026;-73
2023/09/11 11:54:24;;;;;;;5.22;4.05;;;26.30;97.50;;;;;;4992789;28;20030;-75
2023/09/11 11:57:00;;;;;;;7.10;4.50;;;26.20;97.50;;;;;;4993634;28;20026;-74
2023/09/11 11:59:38;;;;;;;6.95;4.88;;;26.30;97.50;;;;;;4993478;28;20022;-73
2023/09/11 12:02:04;;;;;;;10.18;5.22;;;26.30;96.60;;;;;;4993360;28;20066;-73
2023/09/11 12:04:30;;;;;;;5.22;4.40;;;26.30;97.10;;;;;;4993494;28;20030;-73
2023/09/11 12:06:57;;;;;;;6.05;4.13;;;26.30;97.30;;;;;;4991812;28;20034;-72
2023/09/11 12:09:23;;;;;;;7.57;5.13;;;26.30;97.30;;;;;;4987029;28;20038;-72
2023/09/11 12:11:50;;;;;;;5.80;4.25;;;26.30;97.00;;;;;;4972366;28;20023;-72
2023/09/11 12:14:17;;;;;;;6.93;4.53;;;26.30;97.10;;;;;;4972147;28;20027;-77
2023/09/11 12:16:43;;;;;;;6.40;4.35;;;26.30;97.20;;;;;;4972730;28;20549;-76
2023/09/11 12:19:09;;;;;;;8.45;4.07;;;26.30;97.50;;;;;;4988859;28;20027;-78
2023/09/11 12:21:35;;;;;;;6.22;3.90;;;26.30;97.40;;;;;;4974018;28;20046;-74
2023/09/11 12:24:01;;;;;;;8.02;4.93;;;26.30;97.60;;;;;;4973580;28;20519;-73
2023/09/11 12:26:30;;;;;;;8.80;5.82;;;26.40;97.60;;;;;;4973724;28;20030;-77
2023/09/11 12:28:57;;;;;;;6.57;4.80;;;26.40;97.90;;;;;;4973909;28;20488;-75
2023/09/11 12:31:23;;;;;;;7.07;5.57;;;26.30;98.10;;;;;;4973856;28;20391;-72
2023/09/11 12:33:58;;;;;;;10.60;6.47;;;26.40;98.40;;;;;;4973946;28;20480;-72
2023/09/11 12:36:24;;;;;;;9.13;6.68;;;26.40;98.70;;;;;;4973768;28;20609;-76
2023/09/11 12:38:50;;;;;;;12.35;8.95;;;26.40;98.90;;;;;;4988975;28;20123;-73